ADDS METAR Data INFO
IDs: Format: Raw Decoded Include TAF

Data at: 2054 UTC 26 May 2017

KT82 262030Z AUTO 19005G14KT 10SM BKN028 30/21 A2988 RMK AO2 T02970206
KT82 262010Z AUTO 22009G14KT 10SM SCT021 BKN028 29/21 A2988 RMK AO2 T02900208
KT82 261950Z AUTO 19009KT 10SM BKN021 OVC030 27/21 A2990 RMK AO2 T02730211
KT82 261930Z AUTO 19011G15KT 10SM BKN019 OVC025 27/21 A2990 RMK AO2 T02720212
KT82 261910Z AUTO 22011G14KT 10SM BKN016 OVC025 28/22 A2991 RMK AO2 T02760216
KT82 261850Z AUTO 18009KT 10SM BKN014 OVC020 27/22 A2991 RMK AO2 T02730216
KT82 261810Z AUTO 18011KT 10SM BKN012 OVC022 26/22 A2991 RMK AO2 T02640220
KT82 261750Z AUTO 20011G15KT 10SM BKN014 OVC020 26/22 A2992 RMK AO2 T02600218 10260 20225
KT82 261730Z AUTO 21010KT 10SM BKN014 OVC022 26/22 A2992 RMK AO2 T02570215
KT82 261710Z AUTO 21011G16KT 10SM OVC010 25/22 A2992 RMK AO2 T02520216
KT82 261650Z AUTO 21010KT 10SM OVC010 25/22 A2992 RMK AO2 T02450218
KT82 261630Z AUTO 21007KT 5SM HZ OVC010 24/22 A2991 RMK AO2 T02420217
KT82 261610Z AUTO 22010G14KT 10SM BKN010 OVC014 24/22 A2991 RMK AO2 T02440215
KT82 261550Z AUTO 20009KT 10SM OVC010 25/22 A2990 RMK AO2 T02450216
KT82 261530Z AUTO 20010KT 10SM OVC008 24/22 A2990 RMK AO2 T02400217
KT82 261510Z AUTO 19008KT 7SM OVC008 24/22 A2989 RMK AO2 T02350217
KT82 261450Z AUTO 20006KT 10SM OVC006 24/22 A2990 RMK AO2 T02350216
KT82 261430Z AUTO 20006KT 10SM OVC006 23/22 A2990 RMK AO2 T02330215
KT82 261410Z AUTO 20005KT 10SM OVC006 23/22 A2989 RMK AO2 T02310216
KT82 261350Z AUTO 17009KT 7SM OVC006 23/22 A2988 RMK AO2 T02300215
KT82 261330Z AUTO 19007KT 10SM OVC006 23/22 A2988 RMK AO2 T02280216
KT82 261310Z AUTO 18005KT 5SM BR OVC006 23/22 A2987 RMK AO2 T02260215
KT82 261250Z AUTO 18006KT 4SM BR OVC006 23/22 A2987 RMK AO2 T02260215
KT82 261230Z AUTO 19005KT 3SM BR OVC006 23/22 A2987 RMK AO2 T02250215
KT82 261210Z AUTO 20005KT 3SM BR OVC006 23/22 A2986 RMK AO2 T02260215
KT82 261150Z AUTO 19005KT 4SM BR OVC006 23/22 A2985 RMK AO2 T02260215 10236 20226
KT82 261130Z AUTO 19005KT 4SM BR OVC006 23/21 A2985 RMK AO2 T02260213
KT82 261110Z AUTO 19006KT 5SM BR OVC006 23/21 A2984 RMK AO2 T02280214
KT82 261050Z AUTO 20005KT 5SM BR OVC008 23/21 A2984 RMK AO2 T02300212
KT82 261030Z AUTO 20008KT 10SM OVC008 23/21 A2983 RMK AO2 T02310211
KT82 261010Z AUTO 19010KT 10SM OVC010 23/21 A2983 RMK AO2 T02330207
KT82 260950Z AUTO 20006KT 10SM OVC012 24/21 A2982 RMK AO2 T02350205
KT82 260930Z AUTO 19007KT 10SM OVC012 24/20 A2981 RMK AO2 T02350203
KT82 260910Z AUTO 19011KT 10SM OVC012 24/20 A2980 RMK AO2 T02350201
KT82 260850Z AUTO 18007KT 10SM OVC014 24/20 A2980 RMK AO2 T02350199
KT82 260830Z AUTO 19007KT 10SM OVC014 24/20 A2980 RMK AO2 T02350198
KT82 260810Z AUTO 19009G20KT 10SM OVC012 24/20 A2979 RMK AO2 T02350201
KT82 260750Z AUTO 19011G16KT 150V210 10SM OVC010 23/21 A2980 RMK AO2 T02330206
KT82 260730Z AUTO 19013G21KT 10SM OVC010 24/21 A2980 RMK AO2 T02350205
KT82 260710Z AUTO 19012G21KT 10SM OVC012 24/21 A2980 RMK AO2 T02360205
KT82 260650Z AUTO 19008KT 10SM OVC012 24/20 A2980 RMK AO2 T02360203
KT82 260630Z AUTO 19008G18KT 10SM OVC012 24/20 A2980 RMK AO2 T02360203
KT82 260610Z AUTO 19012G16KT 10SM OVC012 24/20 A2980 RMK AO2 T02350201
KT82 260550Z AUTO 18009KT 10SM OVC012 23/20 A2980 RMK AO2 T02330201 10320 20232 403340139
KT82 260530Z AUTO 18009KT 10SM BKN014 23/20 A2979 RMK AO2 T02320200
KT82 260510Z AUTO 17009KT 10SM SCT014 23/20 A2979 RMK AO2 T02320197
KT82 260450Z AUTO 19010KT 10SM CLR 24/20 A2979 RMK AO2 T02360196
KT82 260430Z AUTO 17008KT 10SM CLR 24/20 A2978 RMK AO2 T02390195
KT82 260410Z AUTO 17008KT 10SM CLR 25/19 A2978 RMK AO2 T02450194
KT82 260350Z AUTO 17008KT 10SM CLR 25/19 A2978 RMK AO2 T02490191
KT82 260330Z AUTO 16006KT 10SM CLR 25/19 A2977 RMK AO2 T02520189
KT82 260310Z AUTO 17008KT 10SM CLR 26/19 A2976 RMK AO2 T02580185
KT82 260250Z AUTO 17005KT 10SM CLR 27/18 A2975 RMK AO2 T02650178
KT82 260230Z AUTO 16004KT 10SM CLR 27/17 A2974 RMK AO2 T02710170
KT82 260210Z AUTO 16006KT 10SM CLR 28/17 A2972 RMK AO2 T02760165
KT82 260150Z AUTO 16005KT 10SM CLR 28/16 A2972 RMK AO2 T02830156
KT82 260130Z AUTO 17004KT 10SM CLR 29/15 A2972 RMK AO2 T02900152
KT82 260110Z AUTO 17006G14KT 10SM CLR 30/15 A2971 RMK AO2 T02990150
KT82 260050Z AUTO 18007KT 10SM CLR 31/15 A2971 RMK AO2 T03050146
KT82 260030Z AUTO 19009G17KT 10SM CLR 31/14 A2971 RMK AO2 T03120143
KT82 260010Z AUTO 19010KT 10SM CLR 32/14 A2971 RMK AO2 T03160142
KT82 252350Z AUTO 19015G21KT 10SM CLR 32/14 A2971 RMK AO2 T03200139 10334 20287
KT82 252330Z AUTO 17014G19KT 10SM CLR 33/14 A2971 RMK AO2 T03250140
KT82 252310Z AUTO 21015G21KT 10SM CLR 33/14 A2972 RMK AO2 T03270138
KT82 252250Z AUTO 19014G20KT 10SM CLR 33/14 A2972 RMK AO2 T03300138
KT82 252230Z AUTO 21013G22KT 10SM CLR 33/13 A2972 RMK AO2 T03300132
KT82 252210Z AUTO 21017G21KT 10SM CLR 33/13 A2972 RMK AO2 T03300132
KT82 252150Z AUTO 21012G20KT 170V230 10SM CLR 33/14 A2973 RMK AO2 T03300138
KT82 252130Z AUTO 21013G21KT 10SM CLR 33/13 A2973 RMK AO2 T03280132
KT82 252110Z AUTO 21013G20KT 10SM CLR 33/14 A2974 RMK AO2 T03250135
KT82 252050Z AUTO 19014G19KT 10SM CLR 32/14 A2974 RMK AO2 T03240136
KT82 252030Z AUTO 20016G22KT 10SM CLR 32/14 A2975 RMK AO2 T03210136
KT82 252010Z AUTO 19015G24KT 10SM CLR 32/14 A2975 RMK AO2 T03190135
KT82 251950Z AUTO 20014G19KT 10SM CLR 31/14 A2975 RMK AO2 T03140138
KT82 251930Z AUTO 20015G20KT 10SM CLR 31/14 A2977 RMK AO2 T03100137
KT82 251910Z AUTO 21015G20KT 10SM CLR 31/14 A2977 RMK AO2 T03120137
KT82 251850Z AUTO 19013G24KT 10SM CLR 30/13 A2978 RMK AO2 T02990132
KT82 251830Z AUTO 20017G24KT 10SM CLR 29/13 A2978 RMK AO2 T02940134
KT82 251810Z AUTO 20016G23KT 10SM CLR 29/13 A2978 RMK AO2 T02880132
KT82 251750Z AUTO 18015G20KT 10SM CLR 29/13 A2979 RMK AO2 T02920134 10292 20170
KT82 251730Z AUTO 20018G23KT 10SM CLR 29/13 A2980 RMK AO2 T02850127
KT82 251710Z AUTO 19018G23KT 10SM CLR 28/12 A2979 RMK AO2 T02760123
KT82 251650Z AUTO 20015G24KT 10SM CLR 27/12 A2980 RMK AO2 T02710121
KT82 251630Z AUTO 20018G23KT 10SM CLR 27/12 A2979 RMK AO2 T02670116
KT82 251610Z AUTO 20012G18KT 10SM CLR 26/11 A2980 RMK AO2 T02630111
KT82 251550Z AUTO 21015G21KT 10SM CLR 26/11 A2980 RMK AO2 T02590106
KT82 251530Z AUTO 19015G19KT 10SM CLR 25/10 A2980 RMK AO2 T02480096
KT82 251510Z AUTO 19013G19KT 10SM CLR 24/09 A2980 RMK AO2 T02440087
KT82 251450Z AUTO 19013G18KT 10SM CLR 24/08 A2980 RMK AO2 T02350078
KT82 251430Z AUTO 19015G20KT 10SM CLR 23/08 A2980 RMK AO2 T02270079
KT82 251410Z AUTO 21016G21KT 10SM CLR 22/08 A2981 RMK AO2 T02160083
KT82 251350Z AUTO 22011G19KT 10SM CLR 21/09 A2981 RMK AO2 T02090087
KT82 251330Z AUTO 20013G16KT 10SM CLR 20/09 A2981 RMK AO2 T02000089
KT82 251310Z AUTO 21013G16KT 10SM CLR 19/09 A2981 RMK AO2 T01920091
KT82 251250Z AUTO 20009G16KT 10SM CLR 18/09 A2981 RMK AO2 T01840092
KT82 251230Z AUTO 21008KT 10SM CLR 18/09 A2981 RMK AO2 T01780093
KT82 251210Z AUTO 21007KT 10SM CLR 17/09 A2980 RMK AO2 T01730092
KT82 251150Z AUTO 22009KT 10SM CLR 17/09 A2979 RMK AO2 T01670094 10186 20139
KT82 251130Z AUTO 21009KT 10SM CLR 17/09 A2978 RMK AO2 T01680094
KT82 251110Z AUTO 20008KT 10SM CLR 17/10 A2978 RMK AO2 T01670095
KT82 251050Z AUTO 21006KT 10SM CLR 17/09 A2978 RMK AO2 T01670093
KT82 251030Z AUTO 21008KT 10SM CLR 17/09 A2977 RMK AO2 T01720092
KT82 251010Z AUTO 21008KT 180V240 10SM CLR 17/09 A2977 RMK AO2 T01720092
KT82 250950Z AUTO 21007KT 10SM CLR 18/09 A2976 RMK AO2 T01760090
KT82 250930Z AUTO 21007KT 10SM CLR 18/09 A2975 RMK AO2 T01790088
KT82 250910Z AUTO 21007KT 10SM CLR 18/09 A2975 RMK AO2 T01800085


Page loaded:  20:54 UTC  |   01:54 PM Pacific  |   02:54 PM Mountain  |   03:54 PM Central  |   04:54 PM Eastern

 

ADVISORIES

FORECASTS

FORECASTS

OBSERVATIONS

USER TOOLS

ABOUT US